sensor_id;sensor_type;location;lat;lon;timestamp;P1;durP1;ratioP1;P2;durP2;ratioP2
34725;SDS011;20951;50.818;4.344;2022-09-03T00:00:04;5.32;;;3.50;;
34725;SDS011;20951;50.818;4.344;2022-09-03T00:02:44;4.68;;;3.10;;
34725;SDS011;20951;50.818;4.344;2022-09-03T00:08:32;6.88;;;3.17;;
34725;SDS011;20951;50.818;4.344;2022-09-03T00:11:17;7.05;;;3.05;;
34725;SDS011;20951;50.818;4.344;2022-09-03T00:14:10;6.75;;;3.22;;
34725;SDS011;20951;50.818;4.344;2022-09-03T00:16:51;4.25;;;3.15;;
34725;SDS011;20951;50.818;4.344;2022-09-03T00:19:44;5.63;;;2.70;;
34725;SDS011;20951;50.818;4.344;2022-09-03T00:22:29;4.43;;;3.25;;
34725;SDS011;20951;50.818;4.344;2022-09-03T00:25:04;8.23;;;3.13;;
34725;SDS011;20951;50.818;4.344;2022-09-03T00:27:39;6.40;;;3.17;;
34725;SDS011;20951;50.818;4.344;2022-09-03T00:30:17;7.68;;;3.30;;
34725;SDS011;20951;50.818;4.344;2022-09-03T00:33:06;5.90;;;3.45;;
34725;SDS011;20951;50.818;4.344;2022-09-03T00:38:18;6.45;;;2.97;;
34725;SDS011;20951;50.818;4.344;2022-09-03T00:44:17;5.07;;;3.10;;
34725;SDS011;20951;50.818;4.344;2022-09-03T00:47:12;3.92;;;2.80;;
34725;SDS011;20951;50.818;4.344;2022-09-03T00:50:03;5.15;;;2.72;;
34725;SDS011;20951;50.818;4.344;2022-09-03T00:59:14;4.07;;;2.78;;
34725;SDS011;20951;50.818;4.344;2022-09-03T01:01:19;5.15;;;2.60;;
34725;SDS011;20951;50.818;4.344;2022-09-03T01:04:16;6.20;;;2.85;;
34725;SDS011;20951;50.818;4.344;2022-09-03T01:12:54;5.68;;;2.53;;
34725;SDS011;20951;50.818;4.344;2022-09-03T01:24:21;5.18;;;3.00;;
34725;SDS011;20951;50.818;4.344;2022-09-03T01:27:27;4.43;;;2.80;;
34725;SDS011;20951;50.818;4.344;2022-09-03T01:30:06;5.07;;;2.90;;
34725;SDS011;20951;50.818;4.344;2022-09-03T01:35:21;6.80;;;3.00;;
34725;SDS011;20951;50.818;4.344;2022-09-03T01:40:50;5.18;;;3.20;;
34725;SDS011;20951;50.818;4.344;2022-09-03T01:43:50;4.68;;;3.17;;
34725;SDS011;20951;50.818;4.344;2022-09-03T01:46:32;5.05;;;2.92;;
34725;SDS011;20951;50.818;4.344;2022-09-03T01:52:13;5.45;;;2.97;;
34725;SDS011;20951;50.818;4.344;2022-09-03T01:55:05;5.40;;;2.90;;
34725;SDS011;20951;50.818;4.344;2022-09-03T02:00:33;5.70;;;3.03;;
34725;SDS011;20951;50.818;4.344;2022-09-03T02:03:05;5.63;;;3.28;;
34725;SDS011;20951;50.818;4.344;2022-09-03T02:05:44;4.35;;;3.28;;
34725;SDS011;20951;50.818;4.344;2022-09-03T02:08:19;6.75;;;3.33;;
34725;SDS011;20951;50.818;4.344;2022-09-03T02:10:46;6.97;;;3.35;;
34725;SDS011;20951;50.818;4.344;2022-09-03T02:13:19;4.35;;;3.03;;
34725;SDS011;20951;50.818;4.344;2022-09-03T02:15:51;6.05;;;2.90;;
34725;SDS011;20951;50.818;4.344;2022-09-03T02:18:25;4.78;;;3.10;;
34725;SDS011;20951;50.818;4.344;2022-09-03T02:20:57;6.53;;;3.63;;
34725;SDS011;20951;50.818;4.344;2022-09-03T02:23:30;4.68;;;3.30;;
34725;SDS011;20951;50.818;4.344;2022-09-03T02:25:59;8.80;;;3.50;;
34725;SDS011;20951;50.818;4.344;2022-09-03T02:28:36;5.35;;;3.45;;
34725;SDS011;20951;50.818;4.344;2022-09-03T02:31:05;5.43;;;3.90;;
34725;SDS011;20951;50.818;4.344;2022-09-03T02:33:39;7.93;;;3.80;;
34725;SDS011;20951;50.818;4.344;2022-09-03T02:36:09;5.93;;;3.80;;
34725;SDS011;20951;50.818;4.344;2022-09-03T02:38:47;4.80;;;3.67;;
34725;SDS011;20951;50.818;4.344;2022-09-03T02:41:25;5.22;;;3.90;;
34725;SDS011;20951;50.818;4.344;2022-09-03T02:44:02;7.47;;;3.97;;
34725;SDS011;20951;50.818;4.344;2022-09-03T02:46:52;6.88;;;4.00;;
34725;SDS011;20951;50.818;4.344;2022-09-03T02:49:21;6.13;;;4.28;;
34725;SDS011;20951;50.818;4.344;2022-09-03T02:51:51;5.90;;;3.70;;
34725;SDS011;20951;50.818;4.344;2022-09-03T02:57:00;6.68;;;4.35;;
34725;SDS011;20951;50.818;4.344;2022-09-03T02:59:27;5.10;;;4.28;;
34725;SDS011;20951;50.818;4.344;2022-09-03T03:02:01;6.95;;;4.30;;
34725;SDS011;20951;50.818;4.344;2022-09-03T03:04:33;6.78;;;4.05;;
34725;SDS011;20951;50.818;4.344;2022-09-03T03:06:59;7.28;;;4.05;;
34725;SDS011;20951;50.818;4.344;2022-09-03T03:09:38;7.32;;;4.18;;
34725;SDS011;20951;50.818;4.344;2022-09-03T03:12:22;8.02;;;3.67;;
34725;SDS011;20951;50.818;4.344;2022-09-03T03:14:50;5.60;;;4.10;;
34725;SDS011;20951;50.818;4.344;2022-09-03T03:17:26;5.95;;;4.03;;
34725;SDS011;20951;50.818;4.344;2022-09-03T03:19:53;7.15;;;4.03;;
34725;SDS011;20951;50.818;4.344;2022-09-03T03:22:22;6.22;;;3.72;;
34725;SDS011;20951;50.818;4.344;2022-09-03T03:24:57;7.22;;;3.72;;
34725;SDS011;20951;50.818;4.344;2022-09-03T03:27:34;6.35;;;3.97;;
34725;SDS011;20951;50.818;4.344;2022-09-03T03:30:23;6.93;;;4.00;;
34725;SDS011;20951;50.818;4.344;2022-09-03T03:32:51;7.57;;;4.13;;
34725;SDS011;20951;50.818;4.344;2022-09-03T03:35:28;6.65;;;4.07;;
34725;SDS011;20951;50.818;4.344;2022-09-03T03:37:56;6.55;;;3.63;;
34725;SDS011;20951;50.818;4.344;2022-09-03T03:40:25;6.25;;;3.53;;
34725;SDS011;20951;50.818;4.344;2022-09-03T03:43:07;5.97;;;3.40;;
34725;SDS011;20951;50.818;4.344;2022-09-03T03:45:43;5.10;;;3.33;;
34725;SDS011;20951;50.818;4.344;2022-09-03T03:48:27;7.10;;;3.97;;
34725;SDS011;20951;50.818;4.344;2022-09-03T03:51:03;6.75;;;4.10;;
34725;SDS011;20951;50.818;4.344;2022-09-03T03:53:57;7.00;;;4.43;;
34725;SDS011;20951;50.818;4.344;2022-09-03T03:56:24;6.40;;;3.80;;
34725;SDS011;20951;50.818;4.344;2022-09-03T03:59:03;5.15;;;3.70;;
34725;SDS011;20951;50.818;4.344;2022-09-03T04:01:39;6.15;;;3.60;;
34725;SDS011;20951;50.818;4.344;2022-09-03T04:04:08;6.57;;;3.58;;
34725;SDS011;20951;50.818;4.344;2022-09-03T04:06:37;5.22;;;3.13;;
34725;SDS011;20951;50.818;4.344;2022-09-03T04:09:12;5.60;;;3.40;;
34725;SDS011;20951;50.818;4.344;2022-09-03T04:11:38;6.00;;;3.03;;
34725;SDS011;20951;50.818;4.344;2022-09-03T04:14:14;5.95;;;3.22;;
34725;SDS011;20951;50.818;4.344;2022-09-03T04:16:54;4.38;;;2.90;;
34725;SDS011;20951;50.818;4.344;2022-09-03T04:19:23;4.88;;;3.05;;
34725;SDS011;20951;50.818;4.344;2022-09-03T04:21:58;4.50;;;3.00;;
34725;SDS011;20951;50.818;4.344;2022-09-03T04:24:24;5.82;;;4.20;;
34725;SDS011;20951;50.818;4.344;2022-09-03T04:26:51;4.40;;;3.65;;
34725;SDS011;20951;50.818;4.344;2022-09-03T04:29:28;5.38;;;3.45;;
34725;SDS011;20951;50.818;4.344;2022-09-03T04:32:06;5.18;;;2.97;;
34725;SDS011;20951;50.818;4.344;2022-09-03T04:34:53;4.70;;;3.13;;
34725;SDS011;20951;50.818;4.344;2022-09-03T04:37:24;5.47;;;2.88;;
34725;SDS011;20951;50.818;4.344;2022-09-03T04:40:01;4.00;;;2.90;;
34725;SDS011;20951;50.818;4.344;2022-09-03T04:42:36;3.60;;;2.60;;
34725;SDS011;20951;50.818;4.344;2022-09-03T04:45:03;4.82;;;2.85;;
34725;SDS011;20951;50.818;4.344;2022-09-03T04:47:32;4.18;;;2.40;;
34725;SDS011;20951;50.818;4.344;2022-09-03T04:50:02;4.80;;;2.63;;
34725;SDS011;20951;50.818;4.344;2022-09-03T04:52:29;4.93;;;3.20;;
34725;SDS011;20951;50.818;4.344;2022-09-03T04:54:56;4.18;;;2.92;;
34725;SDS011;20951;50.818;4.344;2022-09-03T04:57:40;3.58;;;2.45;;
34725;SDS011;20951;50.818;4.344;2022-09-03T05:00:10;4.40;;;2.33;;
34725;SDS011;20951;50.818;4.344;2022-09-03T05:02:43;4.32;;;2.60;;
34725;SDS011;20951;50.818;4.344;2022-09-03T05:05:15;4.65;;;2.38;;
34725;SDS011;20951;50.818;4.344;2022-09-03T05:07:51;3.67;;;2.60;;
34725;SDS011;20951;50.818;4.344;2022-09-03T05:10:20;5.57;;;2.42;;
34725;SDS011;20951;50.818;4.344;2022-09-03T05:13:01;3.88;;;2.25;;
34725;SDS011;20951;50.818;4.344;2022-09-03T05:15:32;5.88;;;2.47;;
34725;SDS011;20951;50.818;4.344;2022-09-03T05:18:07;4.03;;;2.50;;
34725;SDS011;20951;50.818;4.344;2022-09-03T05:20:36;4.57;;;2.33;;
34725;SDS011;20951;50.818;4.344;2022-09-03T05:23:02;5.28;;;2.50;;
34725;SDS011;20951;50.818;4.344;2022-09-03T05:25:35;5.15;;;2.20;;
34725;SDS011;20951;50.818;4.344;2022-09-03T05:28:10;3.97;;;2.30;;
34725;SDS011;20951;50.818;4.344;2022-09-03T05:30:56;4.30;;;2.17;;
34725;SDS011;20951;50.818;4.344;2022-09-03T05:33:32;5.63;;;2.78;;
34725;SDS011;20951;50.818;4.344;2022-09-03T05:36:06;5.32;;;2.53;;
34725;SDS011;20951;50.818;4.344;2022-09-03T05:38:43;3.25;;;2.10;;
34725;SDS011;20951;50.818;4.344;2022-09-03T05:41:20;4.85;;;2.22;;
34725;SDS011;20951;50.818;4.344;2022-09-03T05:43:50;4.43;;;2.40;;
34725;SDS011;20951;50.818;4.344;2022-09-03T05:46:32;5.35;;;2.28;;
34725;SDS011;20951;50.818;4.344;2022-09-03T05:49:03;3.38;;;2.08;;
34725;SDS011;20951;50.818;4.344;2022-09-03T05:51:38;4.70;;;2.20;;
34725;SDS011;20951;50.818;4.344;2022-09-03T05:54:04;4.75;;;2.25;;
34725;SDS011;20951;50.818;4.344;2022-09-03T05:56:34;4.95;;;2.10;;
34725;SDS011;20951;50.818;4.344;2022-09-03T05:59:10;4.60;;;2.10;;
34725;SDS011;20951;50.818;4.344;2022-09-03T06:01:48;5.50;;;2.08;;
34725;SDS011;20951;50.818;4.344;2022-09-03T06:04:16;5.20;;;2.25;;
34725;SDS011;20951;50.818;4.344;2022-09-03T06:06:43;3.70;;;2.03;;
34725;SDS011;20951;50.818;4.344;2022-09-03T06:09:12;4.78;;;1.95;;
34725;SDS011;20951;50.818;4.344;2022-09-03T06:11:42;4.40;;;2.50;;
34725;SDS011;20951;50.818;4.344;2022-09-03T06:14:21;3.65;;;2.15;;
34725;SDS011;20951;50.818;4.344;2022-09-03T06:16:50;3.53;;;1.92;;
34725;SDS011;20951;50.818;4.344;2022-09-03T06:19:18;4.25;;;2.00;;
34725;SDS011;20951;50.818;4.344;2022-09-03T06:21:45;4.40;;;1.98;;
34725;SDS011;20951;50.818;4.344;2022-09-03T06:24:14;4.65;;;2.47;;
34725;SDS011;20951;50.818;4.344;2022-09-03T06:27:01;3.42;;;1.90;;
34725;SDS011;20951;50.818;4.344;2022-09-03T06:29:27;5.05;;;2.10;;
34725;SDS011;20951;50.818;4.344;2022-09-03T06:32:03;4.28;;;1.95;;
34725;SDS011;20951;50.818;4.344;2022-09-03T06:34:32;3.53;;;2.05;;
34725;SDS011;20951;50.818;4.344;2022-09-03T06:37:01;3.65;;;1.98;;
34725;SDS011;20951;50.818;4.344;2022-09-03T06:39:37;3.65;;;1.83;;
34725;SDS011;20951;50.818;4.344;2022-09-03T06:42:18;4.72;;;1.88;;
34725;SDS011;20951;50.818;4.344;2022-09-03T06:44:51;3.33;;;1.88;;
34725;SDS011;20951;50.818;4.344;2022-09-03T06:47:20;4.40;;;2.00;;
34725;SDS011;20951;50.818;4.344;2022-09-03T06:49:46;4.80;;;2.05;;
34725;SDS011;20951;50.818;4.344;2022-09-03T06:52:21;5.28;;;1.95;;
34725;SDS011;20951;50.818;4.344;2022-09-03T06:54:57;3.97;;;1.77;;
34725;SDS011;20951;50.818;4.344;2022-09-03T06:57:33;3.65;;;1.90;;
34725;SDS011;20951;50.818;4.344;2022-09-03T07:00:09;3.40;;;1.88;;
34725;SDS011;20951;50.818;4.344;2022-09-03T07:02:36;4.03;;;2.08;;
34725;SDS011;20951;50.818;4.344;2022-09-03T07:05:05;3.47;;;2.00;;
34725;SDS011;20951;50.818;4.344;2022-09-03T07:07:34;3.95;;;1.80;;
34725;SDS011;20951;50.818;4.344;2022-09-03T07:10:03;5.65;;;2.17;;
34725;SDS011;20951;50.818;4.344;2022-09-03T07:12:42;3.63;;;1.90;;
34725;SDS011;20951;50.818;4.344;2022-09-03T07:15:11;3.75;;;2.10;;
34725;SDS011;20951;50.818;4.344;2022-09-03T07:17:40;4.03;;;1.80;;
34725;SDS011;20951;50.818;4.344;2022-09-03T07:20:11;3.88;;;1.98;;
34725;SDS011;20951;50.818;4.344;2022-09-03T07:22:37;8.05;;;1.98;;
34725;SDS011;20951;50.818;4.344;2022-09-03T07:25:03;5.10;;;2.10;;
34725;SDS011;20951;50.818;4.344;2022-09-03T07:27:43;5.38;;;2.13;;
34725;SDS011;20951;50.818;4.344;2022-09-03T07:30:11;5.97;;;2.08;;
34725;SDS011;20951;50.818;4.344;2022-09-03T07:32:40;6.18;;;2.35;;
34725;SDS011;20951;50.818;4.344;2022-09-03T07:35:11;5.85;;;2.20;;
34725;SDS011;20951;50.818;4.344;2022-09-03T07:37:49;5.93;;;2.70;;
34725;SDS011;20951;50.818;4.344;2022-09-03T07:40:15;6.35;;;2.63;;
34725;SDS011;20951;50.818;4.344;2022-09-03T07:42:59;4.70;;;2.13;;
34725;SDS011;20951;50.818;4.344;2022-09-03T07:45:28;8.25;;;2.70;;
34725;SDS011;20951;50.818;4.344;2022-09-03T07:47:57;6.88;;;2.50;;
34725;SDS011;20951;50.818;4.344;2022-09-03T07:50:27;4.05;;;2.15;;
34725;SDS011;20951;50.818;4.344;2022-09-03T07:53:03;8.60;;;2.30;;
34725;SDS011;20951;50.818;4.344;2022-09-03T07:55:29;9.00;;;2.58;;
34725;SDS011;20951;50.818;4.344;2022-09-03T07:57:58;10.75;;;2.85;;
34725;SDS011;20951;50.818;4.344;2022-09-03T08:00:24;8.60;;;3.63;;
34725;SDS011;20951;50.818;4.344;2022-09-03T08:02:51;7.78;;;3.70;;
34725;SDS011;20951;50.818;4.344;2022-09-03T08:05:19;5.82;;;3.47;;
34725;SDS011;20951;50.818;4.344;2022-09-03T08:07:53;7.68;;;3.38;;
34725;SDS011;20951;50.818;4.344;2022-09-03T08:10:19;13.93;;;3.47;;
34725;SDS011;20951;50.818;4.344;2022-09-03T08:12:48;7.55;;;2.95;;
34725;SDS011;20951;50.818;4.344;2022-09-03T08:15:16;7.97;;;3.00;;
34725;SDS011;20951;50.818;4.344;2022-09-03T08:17:42;5.53;;;2.92;;
34725;SDS011;20951;50.818;4.344;2022-09-03T08:20:19;7.18;;;2.60;;
34725;SDS011;20951;50.818;4.344;2022-09-03T08:22:52;7.50;;;2.70;;
34725;SDS011;20951;50.818;4.344;2022-09-03T08:25:41;5.53;;;2.42;;
34725;SDS011;20951;50.818;4.344;2022-09-03T08:28:25;9.40;;;4.82;;
34725;SDS011;20951;50.818;4.344;2022-09-03T08:30:54;6.05;;;3.83;;
34725;SDS011;20951;50.818;4.344;2022-09-03T08:33:29;13.93;;;3.90;;
34725;SDS011;20951;50.818;4.344;2022-09-03T08:36:19;6.47;;;2.92;;
34725;SDS011;20951;50.818;4.344;2022-09-03T08:39:00;5.38;;;3.10;;
34725;SDS011;20951;50.818;4.344;2022-09-03T08:47:08;6.38;;;3.15;;
34725;SDS011;20951;50.818;4.344;2022-09-03T08:52:49;8.38;;;2.97;;
34725;SDS011;20951;50.818;4.344;2022-09-03T08:55:37;6.20;;;2.90;;
34725;SDS011;20951;50.818;4.344;2022-09-03T08:58:20;7.03;;;3.20;;
34725;SDS011;20951;50.818;4.344;2022-09-03T09:09:46;5.50;;;3.00;;
34725;SDS011;20951;50.818;4.344;2022-09-03T09:18:15;5.95;;;2.90;;
34725;SDS011;20951;50.818;4.344;2022-09-03T09:21:10;6.68;;;2.80;;
34725;SDS011;20951;50.818;4.344;2022-09-03T09:23:45;6.38;;;3.20;;
34725;SDS011;20951;50.818;4.344;2022-09-03T09:26:19;7.18;;;3.08;;
34725;SDS011;20951;50.818;4.344;2022-09-03T09:28:53;9.38;;;2.83;;
34725;SDS011;20951;50.818;4.344;2022-09-03T09:31:37;3.90;;;2.60;;
34725;SDS011;20951;50.818;4.344;2022-09-03T09:34:06;6.15;;;2.75;;
34725;SDS011;20951;50.818;4.344;2022-09-03T09:39:14;5.60;;;2.95;;
34725;SDS011;20951;50.818;4.344;2022-09-03T09:41:40;5.35;;;3.10;;
34725;SDS011;20951;50.818;4.344;2022-09-03T09:44:16;6.30;;;3.10;;
34725;SDS011;20951;50.818;4.344;2022-09-03T09:47:06;5.28;;;3.10;;
34725;SDS011;20951;50.818;4.344;2022-09-03T09:49:34;4.80;;;3.00;;
34725;SDS011;20951;50.818;4.344;2022-09-03T09:52:23;7.47;;;3.40;;
34725;SDS011;20951;50.818;4.344;2022-09-03T09:55:08;7.47;;;3.28;;
34725;SDS011;20951;50.818;4.344;2022-09-03T09:57:47;6.25;;;3.10;;
34725;SDS011;20951;50.818;4.344;2022-09-03T10:00:28;7.60;;;3.40;;
34725;SDS011;20951;50.818;4.344;2022-09-03T10:03:05;7.93;;;3.67;;
34725;SDS011;20951;50.818;4.344;2022-09-03T10:05:38;5.93;;;3.00;;
34725;SDS011;20951;50.818;4.344;2022-09-03T10:08:20;5.28;;;3.58;;
34725;SDS011;20951;50.818;4.344;2022-09-03T10:11:03;6.15;;;3.40;;
34725;SDS011;20951;50.818;4.344;2022-09-03T10:13:38;7.90;;;3.45;;
34725;SDS011;20951;50.818;4.344;2022-09-03T10:16:27;5.75;;;3.17;;
34725;SDS011;20951;50.818;4.344;2022-09-03T10:19:08;10.85;;;3.30;;
34725;SDS011;20951;50.818;4.344;2022-09-03T10:22:09;6.80;;;3.33;;
34725;SDS011;20951;50.818;4.344;2022-09-03T10:24:58;5.95;;;3.35;;
34725;SDS011;20951;50.818;4.344;2022-09-03T10:27:27;10.00;;;3.45;;
34725;SDS011;20951;50.818;4.344;2022-09-03T10:30:02;14.43;;;3.70;;
34725;SDS011;20951;50.818;4.344;2022-09-03T10:32:39;18.02;;;4.20;;
34725;SDS011;20951;50.818;4.344;2022-09-03T10:46:26;16.67;;;4.75;;
34725;SDS011;20951;50.818;4.344;2022-09-03T10:49:19;11.57;;;5.10;;
34725;SDS011;20951;50.818;4.344;2022-09-03T10:52:26;17.75;;;4.07;;
34725;SDS011;20951;50.818;4.344;2022-09-03T10:55:34;7.40;;;4.28;;
34725;SDS011;20951;50.818;4.344;2022-09-03T10:58:32;9.77;;;4.30;;
34725;SDS011;20951;50.818;4.344;2022-09-03T11:01:19;9.52;;;3.92;;
34725;SDS011;20951;50.818;4.344;2022-09-03T11:07:11;8.45;;;3.80;;
34725;SDS011;20951;50.818;4.344;2022-09-03T11:12:42;10.05;;;4.47;;
34725;SDS011;20951;50.818;4.344;2022-09-03T11:15:35;8.48;;;3.85;;
34725;SDS011;20951;50.818;4.344;2022-09-03T11:18:40;10.30;;;3.63;;
34725;SDS011;20951;50.818;4.344;2022-09-03T11:21:13;8.50;;;3.42;;
34725;SDS011;20951;50.818;4.344;2022-09-03T11:29:50;6.25;;;3.83;;
34725;SDS011;20951;50.818;4.344;2022-09-03T11:40:56;7.03;;;3.60;;
34725;SDS011;20951;50.818;4.344;2022-09-03T11:43:31;5.60;;;3.67;;
34725;SDS011;20951;50.818;4.344;2022-09-03T11:46:27;7.78;;;3.75;;
34725;SDS011;20951;50.818;4.344;2022-09-03T11:49:22;7.72;;;3.85;;
34725;SDS011;20951;50.818;4.344;2022-09-03T11:52:04;7.20;;;3.92;;
34725;SDS011;20951;50.818;4.344;2022-09-03T11:54:44;5.85;;;3.45;;
34725;SDS011;20951;50.818;4.344;2022-09-03T11:57:14;7.53;;;3.78;;
34725;SDS011;20951;50.818;4.344;2022-09-03T12:00:07;7.75;;;3.38;;
34725;SDS011;20951;50.818;4.344;2022-09-03T12:02:46;14.05;;;10.25;;
34725;SDS011;20951;50.818;4.344;2022-09-03T12:05:41;7.65;;;5.00;;
34725;SDS011;20951;50.818;4.344;2022-09-03T12:14:41;10.00;;;4.22;;
34725;SDS011;20951;50.818;4.344;2022-09-03T12:20:14;10.52;;;4.15;;
34725;SDS011;20951;50.818;4.344;2022-09-03T12:22:43;8.27;;;3.95;;
34725;SDS011;20951;50.818;4.344;2022-09-03T12:25:13;9.27;;;4.05;;
34725;SDS011;20951;50.818;4.344;2022-09-03T12:27:50;8.70;;;3.60;;
34725;SDS011;20951;50.818;4.344;2022-09-03T12:30:28;8.20;;;4.00;;
34725;SDS011;20951;50.818;4.344;2022-09-03T12:33:12;8.13;;;3.72;;
34725;SDS011;20951;50.818;4.344;2022-09-03T12:35:54;9.43;;;3.53;;
34725;SDS011;20951;50.818;4.344;2022-09-03T12:38:41;6.32;;;3.50;;
34725;SDS011;20951;50.818;4.344;2022-09-03T12:41:20;5.57;;;3.50;;
34725;SDS011;20951;50.818;4.344;2022-09-03T12:43:58;5.95;;;3.40;;
34725;SDS011;20951;50.818;4.344;2022-09-03T12:46:29;5.93;;;3.47;;
34725;SDS011;20951;50.818;4.344;2022-09-03T12:49:00;5.85;;;3.58;;
34725;SDS011;20951;50.818;4.344;2022-09-03T12:51:32;8.40;;;3.30;;
34725;SDS011;20951;50.818;4.344;2022-09-03T12:54:00;8.43;;;3.30;;
34725;SDS011;20951;50.818;4.344;2022-09-03T12:56:41;6.28;;;2.88;;
34725;SDS011;20951;50.818;4.344;2022-09-03T12:59:15;9.52;;;3.25;;
34725;SDS011;20951;50.818;4.344;2022-09-03T13:01:49;4.45;;;2.65;;
34725;SDS011;20951;50.818;4.344;2022-09-03T13:04:32;4.47;;;2.40;;
34725;SDS011;20951;50.818;4.344;2022-09-03T13:10:02;3.55;;;2.53;;
34725;SDS011;20951;50.818;4.344;2022-09-03T13:12:44;4.93;;;2.92;;
34725;SDS011;20951;50.818;4.344;2022-09-03T13:15:20;4.65;;;2.58;;
34725;SDS011;20951;50.818;4.344;2022-09-03T13:32:24;5.95;;;2.55;;
34725;SDS011;20951;50.818;4.344;2022-09-03T13:40:57;4.55;;;2.40;;
34725;SDS011;20951;50.818;4.344;2022-09-03T13:52:30;3.45;;;2.25;;
34725;SDS011;20951;50.818;4.344;2022-09-03T13:55:14;5.55;;;2.47;;
34725;SDS011;20951;50.818;4.344;2022-09-03T14:06:17;4.57;;;2.53;;
34725;SDS011;20951;50.818;4.344;2022-09-03T14:09:08;4.80;;;2.90;;
34725;SDS011;20951;50.818;4.344;2022-09-03T14:14:44;4.85;;;2.60;;
34725;SDS011;20951;50.818;4.344;2022-09-03T14:20:21;4.82;;;2.53;;
34725;SDS011;20951;50.818;4.344;2022-09-03T14:23:02;5.03;;;2.63;;
34725;SDS011;20951;50.818;4.344;2022-09-03T14:25:46;8.77;;;3.13;;
34725;SDS011;20951;50.818;4.344;2022-09-03T14:31:11;5.00;;;2.50;;
34725;SDS011;20951;50.818;4.344;2022-09-03T14:34:15;4.75;;;2.63;;
34725;SDS011;20951;50.818;4.344;2022-09-03T14:37:08;5.35;;;2.67;;
34725;SDS011;20951;50.818;4.344;2022-09-03T14:39:54;4.15;;;2.53;;
34725;SDS011;20951;50.818;4.344;2022-09-03T14:50:55;4.00;;;2.90;;
34725;SDS011;20951;50.818;4.344;2022-09-03T14:56:23;5.22;;;2.70;;
34725;SDS011;20951;50.818;4.344;2022-09-03T15:01:42;5.50;;;3.00;;
34725;SDS011;20951;50.818;4.344;2022-09-03T15:10:11;5.30;;;2.70;;
34725;SDS011;20951;50.818;4.344;2022-09-03T15:13:09;5.82;;;3.10;;
34725;SDS011;20951;50.818;4.344;2022-09-03T15:15:50;6.40;;;2.90;;
34725;SDS011;20951;50.818;4.344;2022-09-03T15:41:59;6.57;;;3.08;;
34725;SDS011;20951;50.818;4.344;2022-09-03T15:44:53;12.32;;;3.60;;
34725;SDS011;20951;50.818;4.344;2022-09-03T15:52:53;7.68;;;3.17;;
34725;SDS011;20951;50.818;4.344;2022-09-03T15:55:29;8.38;;;3.30;;
34725;SDS011;20951;50.818;4.344;2022-09-03T15:58:02;5.65;;;2.83;;
34725;SDS011;20951;50.818;4.344;2022-09-03T16:00:54;6.30;;;2.65;;
34725;SDS011;20951;50.818;4.344;2022-09-03T16:09:17;6.18;;;2.65;;
34725;SDS011;20951;50.818;4.344;2022-09-03T16:17:34;6.07;;;2.80;;
34725;SDS011;20951;50.818;4.344;2022-09-03T16:20:20;7.80;;;2.67;;
34725;SDS011;20951;50.818;4.344;2022-09-03T16:23:03;7.05;;;2.78;;
34725;SDS011;20951;50.818;4.344;2022-09-03T16:25:46;6.93;;;3.15;;
34725;SDS011;20951;50.818;4.344;2022-09-03T16:34:27;5.45;;;2.95;;
34725;SDS011;20951;50.818;4.344;2022-09-03T16:40:14;6.15;;;3.17;;
34725;SDS011;20951;50.818;4.344;2022-09-03T16:54:26;6.78;;;3.15;;
34725;SDS011;20951;50.818;4.344;2022-09-03T16:57:18;6.60;;;3.92;;
34725;SDS011;20951;50.818;4.344;2022-09-03T17:00:24;6.30;;;3.60;;
34725;SDS011;20951;50.818;4.344;2022-09-03T17:03:05;6.18;;;3.42;;
34725;SDS011;20951;50.818;4.344;2022-09-03T17:08:39;7.18;;;3.78;;
34725;SDS011;20951;50.818;4.344;2022-09-03T17:11:29;6.20;;;3.70;;
34725;SDS011;20951;50.818;4.344;2022-09-03T17:14:21;5.43;;;3.47;;
34725;SDS011;20951;50.818;4.344;2022-09-03T17:17:15;4.72;;;3.75;;
34725;SDS011;20951;50.818;4.344;2022-09-03T17:22:39;6.32;;;4.00;;
34725;SDS011;20951;50.818;4.344;2022-09-03T17:25:29;6.85;;;3.60;;
34725;SDS011;20951;50.818;4.344;2022-09-03T17:28:25;4.57;;;3.42;;
34725;SDS011;20951;50.818;4.344;2022-09-03T17:31:27;11.77;;;4.25;;
34725;SDS011;20951;50.818;4.344;2022-09-03T17:37:13;6.55;;;3.40;;
34725;SDS011;20951;50.818;4.344;2022-09-03T17:42:34;4.57;;;3.13;;
34725;SDS011;20951;50.818;4.344;2022-09-03T17:45:20;8.45;;;3.45;;
34725;SDS011;20951;50.818;4.344;2022-09-03T17:51:33;6.97;;;3.50;;
34725;SDS011;20951;50.818;4.344;2022-09-03T17:56:59;6.28;;;3.28;;
34725;SDS011;20951;50.818;4.344;2022-09-03T17:59:42;7.93;;;3.35;;
34725;SDS011;20951;50.818;4.344;2022-09-03T18:05:46;5.35;;;3.50;;
34725;SDS011;20951;50.818;4.344;2022-09-03T18:09:21;5.82;;;3.35;;
34725;SDS011;20951;50.818;4.344;2022-09-03T18:11:18;4.55;;;3.17;;
34725;SDS011;20951;50.818;4.344;2022-09-03T18:19:45;5.45;;;3.30;;
34725;SDS011;20951;50.818;4.344;2022-09-03T18:22:39;5.65;;;3.20;;
34725;SDS011;20951;50.818;4.344;2022-09-03T18:25:35;6.40;;;3.20;;
34725;SDS011;20951;50.818;4.344;2022-09-03T18:28:29;7.57;;;3.83;;
34725;SDS011;20951;50.818;4.344;2022-09-03T18:31:27;8.05;;;3.78;;
34725;SDS011;20951;50.818;4.344;2022-09-03T18:34:11;8.45;;;3.90;;
34725;SDS011;20951;50.818;4.344;2022-09-03T18:36:56;6.78;;;3.80;;
34725;SDS011;20951;50.818;4.344;2022-09-03T18:39:43;11.40;;;7.97;;
34725;SDS011;20951;50.818;4.344;2022-09-03T18:42:31;10.50;;;6.68;;
34725;SDS011;20951;50.818;4.344;2022-09-03T18:51:42;11.85;;;6.72;;
34725;SDS011;20951;50.818;4.344;2022-09-03T19:04:14;5.88;;;4.00;;
34725;SDS011;20951;50.818;4.344;2022-09-03T19:13:42;6.18;;;3.28;;
34725;SDS011;20951;50.818;4.344;2022-09-03T19:22:46;4.78;;;2.60;;
34725;SDS011;20951;50.818;4.344;2022-09-03T19:25:33;8.45;;;5.05;;
34725;SDS011;20951;50.818;4.344;2022-09-03T19:28:28;7.03;;;4.15;;
34725;SDS011;20951;50.818;4.344;2022-09-03T19:37:20;5.22;;;2.70;;
34725;SDS011;20951;50.818;4.344;2022-09-03T19:52:40;5.55;;;3.90;;
34725;SDS011;20951;50.818;4.344;2022-09-03T19:55:34;6.00;;;3.50;;
34725;SDS011;20951;50.818;4.344;2022-09-03T19:58:26;6.35;;;3.05;;
34725;SDS011;20951;50.818;4.344;2022-09-03T20:01:14;4.88;;;3.00;;
34725;SDS011;20951;50.818;4.344;2022-09-03T20:04:03;3.95;;;2.90;;
34725;SDS011;20951;50.818;4.344;2022-09-03T20:06:54;4.80;;;3.30;;
34725;SDS011;20951;50.818;4.344;2022-09-03T20:09:43;6.28;;;3.47;;
34725;SDS011;20951;50.818;4.344;2022-09-03T20:12:36;5.68;;;3.63;;
34725;SDS011;20951;50.818;4.344;2022-09-03T20:15:11;4.78;;;3.28;;
34725;SDS011;20951;50.818;4.344;2022-09-03T20:17:55;5.18;;;3.17;;
34725;SDS011;20951;50.818;4.344;2022-09-03T20:20:56;6.03;;;2.80;;
34725;SDS011;20951;50.818;4.344;2022-09-03T20:29:23;6.05;;;3.28;;
34725;SDS011;20951;50.818;4.344;2022-09-03T20:37:53;4.50;;;3.13;;
34725;SDS011;20951;50.818;4.344;2022-09-03T20:40:39;4.38;;;3.05;;
34725;SDS011;20951;50.818;4.344;2022-09-03T20:43:39;5.30;;;3.10;;
34725;SDS011;20951;50.818;4.344;2022-09-03T20:55:20;10.20;;;8.43;;
34725;SDS011;20951;50.818;4.344;2022-09-03T20:57:54;9.50;;;7.05;;
34725;SDS011;20951;50.818;4.344;2022-09-03T21:06:49;5.90;;;4.72;;
34725;SDS011;20951;50.818;4.344;2022-09-03T21:09:50;5.03;;;3.90;;
34725;SDS011;20951;50.818;4.344;2022-09-03T21:12:37;5.65;;;4.35;;
34725;SDS011;20951;50.818;4.344;2022-09-03T21:15:34;8.13;;;6.53;;
34725;SDS011;20951;50.818;4.344;2022-09-03T21:28:00;6.60;;;4.00;;
34725;SDS011;20951;50.818;4.344;2022-09-03T21:30:44;6.15;;;3.92;;
34725;SDS011;20951;50.818;4.344;2022-09-03T21:33:28;11.03;;;8.77;;
34725;SDS011;20951;50.818;4.344;2022-09-03T21:36:45;7.35;;;5.07;;
34725;SDS011;20951;50.818;4.344;2022-09-03T21:39:32;6.03;;;4.28;;
34725;SDS011;20951;50.818;4.344;2022-09-03T21:42:43;5.80;;;4.03;;
34725;SDS011;20951;50.818;4.344;2022-09-03T21:48:20;5.13;;;3.60;;
34725;SDS011;20951;50.818;4.344;2022-09-03T21:50:59;5.15;;;3.85;;
34725;SDS011;20951;50.818;4.344;2022-09-03T21:53:49;7.32;;;3.40;;